Time;durP1;ratioP1;P1;durP2;ratioP2;P2;SDS_P1;SDS_P2;PMS_P1;PMS_P2;Temp;Humidity;BMP_temperature;BMP_pressure;BME280_temperature;BME280_humidity;BME280_pressure;Samples;Min_cycle;Max_cycle;Signal;HPM_P1;HPM_P2
2022/03/26 00:02:02;;;;;;;21.70;10.60;;;9.80;90.10;;;;;;4894539;29;20048;-94
2022/03/26 00:04:28;;;;;;;17.35;10.38;;;9.80;90.20;;;;;;4892733;29;20037;-93
2022/03/26 00:06:56;;;;;;;18.92;10.07;;;9.80;90.20;;;;;;4878710;29;20037;-94
2022/03/26 00:09:29;;;;;;;20.75;10.05;;;9.70;90.30;;;;;;4890203;29;20033;-93
2022/03/26 00:11:59;;;;;;;19.05;10.30;;;9.80;90.40;;;;;;4894063;29;20452;-93
2022/03/26 00:14:26;;;;;;;16.77;9.50;;;9.70;90.40;;;;;;4878653;29;20048;-93
2022/03/26 00:16:52;;;;;;;16.00;9.73;;;9.70;90.40;;;;;;4878731;29;20049;-93
2022/03/26 00:19:27;;;;;;;12.85;8.35;;;9.70;90.40;;;;;;4894158;29;20041;-93
2022/03/26 00:21:56;;;;;;;16.23;9.63;;;9.70;90.50;;;;;;4939459;23;20052;-92
2022/03/26 00:24:22;;;;;;;17.45;9.90;;;9.60;90.60;;;;;;4908126;29;20036;-95
2022/03/26 00:26:48;;;;;;;16.70;9.85;;;9.60;90.60;;;;;;4907385;29;20051;-95
2022/03/26 00:29:17;;;;;;;17.50;10.20;;;9.60;90.70;;;;;;4913964;29;20039;-93
2022/03/26 00:31:46;;;;;;;16.67;9.55;;;9.60;90.80;;;;;;4952703;23;20071;-93
2022/03/26 00:34:15;;;;;;;13.93;9.52;;;9.60;90.80;;;;;;4911878;29;20044;-94
2022/03/26 00:36:41;;;;;;;19.00;9.68;;;9.60;90.80;;;;;;4909924;29;20039;-94
2022/03/26 00:39:08;;;;;;;15.80;9.52;;;9.50;91.20;;;;;;4897897;29;20041;-94
2022/03/26 00:41:51;;;;;;;16.17;9.90;;;9.50;90.90;;;;;;4899667;29;20145;-93
2022/03/26 00:44:18;;;;;;;13.90;8.18;;;9.50;91.00;;;;;;4976425;23;20059;-93
2022/03/26 00:46:47;;;;;;;13.80;8.75;;;9.50;91.00;;;;;;4914924;29;20047;-95
2022/03/26 00:49:18;;;;;;;13.65;8.73;;;9.40;91.10;;;;;;4913523;29;20063;-93
2022/03/26 00:51:46;;;;;;;17.50;10.05;;;9.40;91.20;;;;;;4913060;29;20048;-96
2022/03/26 00:54:12;;;;;;;15.27;9.60;;;9.40;91.20;;;;;;4904754;29;20028;-95
2022/03/26 00:56:45;;;;;;;18.67;10.32;;;9.40;91.30;;;;;;4896795;29;20040;-94
2022/03/26 00:59:12;;;;;;;19.10;10.45;;;9.40;91.30;;;;;;4915075;29;20040;-92
2022/03/26 01:01:41;;;;;;;17.15;9.85;;;9.40;91.40;;;;;;4899581;29;20040;-93
2022/03/26 01:04:07;;;;;;;16.23;9.43;;;9.30;91.50;;;;;;4905633;23;20056;-94
2022/03/26 01:06:34;;;;;;;15.73;10.93;;;9.30;91.50;;;;;;4905703;29;20517;-94
2022/03/26 01:09:02;;;;;;;18.15;9.93;;;9.30;91.60;;;;;;4904423;29;20107;-94
2022/03/26 01:11:31;;;;;;;17.40;10.05;;;9.20;91.60;;;;;;4910245;29;20076;-94
2022/03/26 01:13:59;;;;;;;18.65;10.07;;;9.20;91.70;;;;;;4913266;29;20037;-94
2022/03/26 01:16:26;;;;;;;17.88;10.25;;;9.10;91.80;;;;;;4912274;29;20558;-94
2022/03/26 01:18:53;;;;;;;17.08;10.55;;;9.10;91.90;;;;;;4904940;29;20033;-94
2022/03/26 01:21:19;;;;;;;16.83;9.70;;;9.10;91.90;;;;;;4906469;29;20032;-94
2022/03/26 01:23:46;;;;;;;17.33;10.10;;;9.00;92.00;;;;;;4903550;29;20028;-95
2022/03/26 01:26:17;;;;;;;19.80;10.05;;;9.00;92.00;;;;;;4904847;29;20035;-94
2022/03/26 01:28:43;;;;;;;17.45;10.20;;;9.00;92.10;;;;;;4910078;29;20040;-92
2022/03/26 01:31:10;;;;;;;16.33;10.52;;;9.00;92.20;;;;;;4911941;29;20048;-93
2022/03/26 01:33:38;;;;;;;16.02;10.07;;;9.00;92.40;;;;;;4897956;29;20044;-92
2022/03/26 01:36:24;;;;;;;15.57;9.13;;;8.90;92.30;;;;;;4930266;29;20133;-92
2022/03/26 01:38:51;;;;;;;17.52;10.90;;;8.90;92.40;;;;;;4914182;29;20056;-93
2022/03/26 01:41:20;;;;;;;15.20;9.25;;;8.90;92.40;;;;;;4913984;29;20542;-93
2022/03/26 01:43:51;;;;;;;22.15;11.38;;;8.80;92.60;;;;;;4930509;29;20032;-92
2022/03/26 01:46:16;;;;;;;17.80;10.35;;;8.70;92.70;;;;;;4912496;29;20487;-91
2022/03/26 01:48:42;;;;;;;17.60;10.90;;;8.70;92.90;;;;;;4907853;29;20060;-91
2022/03/26 01:51:14;;;;;;;19.13;11.27;;;8.70;93.00;;;;;;4912006;29;20079;-92
2022/03/26 01:53:45;;;;;;;18.75;10.55;;;8.60;93.10;;;;;;4905221;29;20149;-92
2022/03/26 01:56:12;;;;;;;16.65;9.80;;;8.50;93.10;;;;;;4908824;29;20080;-90
2022/03/26 01:58:39;;;;;;;20.17;10.98;;;8.50;93.20;;;;;;4890954;29;20036;-93
2022/03/26 02:01:04;;;;;;;17.35;9.65;;;8.50;93.20;;;;;;4962611;23;20119;-91
2022/03/26 02:03:30;;;;;;;16.73;9.95;;;8.50;93.20;;;;;;4912965;29;20051;-91
2022/03/26 02:05:56;;;;;;;18.25;10.18;;;8.50;93.30;;;;;;4891103;29;20068;-92
2022/03/26 02:08:23;;;;;;;19.25;10.93;;;8.50;93.40;;;;;;4909218;29;20054;-92
2022/03/26 02:10:52;;;;;;;16.45;10.43;;;8.40;93.40;;;;;;4912714;29;20040;-91
2022/03/26 02:13:17;;;;;;;14.48;9.55;;;8.50;93.50;;;;;;4913425;29;20032;-91
2022/03/26 02:15:46;;;;;;;18.05;10.45;;;8.40;93.60;;;;;;4912873;29;20506;-92
2022/03/26 02:18:14;;;;;;;17.42;10.25;;;8.30;93.70;;;;;;4928283;29;20038;-92
2022/03/26 02:20:40;;;;;;;16.00;10.07;;;8.30;93.80;;;;;;4906512;29;20036;-92
2022/03/26 02:23:06;;;;;;;16.15;10.02;;;8.20;93.90;;;;;;4909769;29;20040;-91
2022/03/26 02:25:33;;;;;;;20.25;9.68;;;8.20;94.00;;;;;;4909700;29;20032;-90
2022/03/26 02:27:59;;;;;;;13.68;9.20;;;8.20;94.10;;;;;;4913545;29;20055;-92
2022/03/26 02:30:25;;;;;;;17.83;9.93;;;8.10;94.10;;;;;;4911961;29;20039;-92
2022/03/26 02:32:53;;;;;;;15.32;9.68;;;8.10;94.20;;;;;;4910829;29;20044;-90
2022/03/26 02:35:22;;;;;;;13.85;9.65;;;8.00;94.30;;;;;;4893655;29;20084;-91
2022/03/26 02:37:49;;;;;;;17.23;8.98;;;8.00;94.40;;;;;;4914166;29;20047;-91
2022/03/26 02:40:18;;;;;;;14.00;9.18;;;8.00;94.50;;;;;;4910819;29;20047;-89
2022/03/26 02:42:45;;;;;;;16.58;11.07;;;7.90;94.60;;;;;;4913745;29;20047;-91
2022/03/26 02:45:18;;;;;;;18.55;9.18;;;7.90;94.70;;;;;;4914204;29;20077;-91
2022/03/26 02:47:44;;;;;;;15.10;10.15;;;7.80;94.80;;;;;;4898944;29;20040;-91
2022/03/26 02:50:09;;;;;;;16.52;10.18;;;7.80;94.90;;;;;;4913292;29;20040;-91
2022/03/26 02:52:36;;;;;;;16.33;11.23;;;7.70;95.00;;;;;;4907782;29;20044;-93
2022/03/26 02:55:02;;;;;;;17.65;10.82;;;7.70;95.10;;;;;;4903585;29;20168;-93
2022/03/26 02:57:28;;;;;;;17.00;9.88;;;7.70;95.20;;;;;;4906874;29;20028;-92
2022/03/26 02:59:54;;;;;;;16.15;9.73;;;7.60;95.20;;;;;;4905382;29;20414;-92
2022/03/26 03:02:19;;;;;;;16.52;10.90;;;7.60;95.40;;;;;;4907646;29;20058;-92
2022/03/26 03:04:45;;;;;;;21.10;11.18;;;7.50;95.50;;;;;;4903845;29;20047;-93
2022/03/26 03:07:11;;;;;;;17.52;11.00;;;7.50;95.60;;;;;;4902447;29;20064;-93
2022/03/26 03:09:37;;;;;;;16.70;11.05;;;7.40;95.80;;;;;;4902240;29;20032;-92
2022/03/26 03:12:02;;;;;;;17.00;11.07;;;7.30;95.80;;;;;;4907158;29;20040;-93
2022/03/26 03:14:30;;;;;;;19.35;12.20;;;7.40;96.00;;;;;;4908599;29;20032;-92
2022/03/26 03:16:56;;;;;;;18.55;11.95;;;7.30;96.10;;;;;;4920843;29;20028;-93
2022/03/26 03:19:22;;;;;;;16.58;10.52;;;7.30;96.20;;;;;;4902911;29;20032;-93
2022/03/26 03:21:47;;;;;;;16.58;10.32;;;7.30;96.30;;;;;;4904878;29;20036;-93
2022/03/26 03:24:13;;;;;;;17.90;10.60;;;7.20;96.30;;;;;;4901730;29;20474;-92
2022/03/26 03:26:39;;;;;;;17.25;10.57;;;7.20;96.70;;;;;;4903327;29;20028;-93
2022/03/26 03:29:04;;;;;;;17.73;10.27;;;7.10;96.50;;;;;;4902261;29;20032;-92
2022/03/26 03:31:31;;;;;;;18.05;10.93;;;7.10;96.60;;;;;;4905145;29;20079;-93
2022/03/26 03:33:56;;;;;;;18.20;11.02;;;7.10;96.70;;;;;;4919450;29;20036;-92
2022/03/26 03:36:22;;;;;;;17.77;11.40;;;7.00;96.80;;;;;;4902278;29;20040;-94
2022/03/26 03:38:48;;;;;;;19.90;11.13;;;7.00;96.80;;;;;;4907282;29;20035;-92
2022/03/26 03:41:17;;;;;;;16.77;10.35;;;6.90;96.90;;;;;;4913792;29;20198;-91
2022/03/26 03:43:44;;;;;;;18.33;11.52;;;6.90;97.00;;;;;;4915955;29;20036;-92
2022/03/26 03:46:10;;;;;;;20.33;12.18;;;6.90;97.10;;;;;;4911456;29;20036;-92
2022/03/26 03:48:35;;;;;;;16.88;10.85;;;6.80;97.20;;;;;;4913901;29;20105;-92
2022/03/26 03:51:01;;;;;;;16.98;10.95;;;6.80;97.40;;;;;;4915371;29;20063;-91
2022/03/26 03:53:27;;;;;;;21.50;12.20;;;6.80;97.40;;;;;;4914353;29;20028;-92
2022/03/26 03:55:53;;;;;;;18.98;12.05;;;6.80;97.50;;;;;;4913510;29;20364;-93
2022/03/26 03:58:19;;;;;;;20.05;11.38;;;6.70;97.60;;;;;;4912037;29;20055;-93
2022/03/26 04:00:45;;;;;;;18.67;11.60;;;6.70;97.70;;;;;;4915628;29;20024;-91
2022/03/26 04:03:10;;;;;;;18.95;11.48;;;6.70;97.80;;;;;;4915248;29;20063;-91
2022/03/26 04:05:36;;;;;;;18.30;11.75;;;6.70;97.90;;;;;;4898277;29;20032;-93
2022/03/26 04:08:06;;;;;;;20.13;12.27;;;6.70;98.00;;;;;;4916314;29;20050;-92
2022/03/26 04:10:37;;;;;;;16.75;11.38;;;6.70;98.10;;;;;;4918532;29;20032;-91
2022/03/26 04:13:04;;;;;;;19.75;11.65;;;6.70;98.20;;;;;;4933920;29;20043;-92
2022/03/26 04:15:31;;;;;;;20.55;12.50;;;6.70;98.20;;;;;;4901224;29;20041;-91
2022/03/26 04:17:57;;;;;;;19.27;11.48;;;6.60;98.30;;;;;;4899979;29;20044;-92
2022/03/26 04:20:23;;;;;;;19.63;11.85;;;6.60;98.40;;;;;;4913174;29;20039;-93
2022/03/26 04:23:05;;;;;;;22.02;11.63;;;6.50;98.50;;;;;;5067305;23;20427;-91
2022/03/26 04:25:32;;;;;;;20.38;11.77;;;6.50;98.70;;;;;;4995932;23;20063;-91
2022/03/26 04:28:17;;;;;;;21.00;12.18;;;6.40;98.70;;;;;;5003407;23;20080;-92
2022/03/26 04:31:04;;;;;;;21.23;12.52;;;6.30;98.80;;;;;;5173272;23;20172;-90
2022/03/26 04:33:40;;;;;;;21.90;12.85;;;6.40;99.00;;;;;;4898950;29;20048;-91
2022/03/26 04:36:06;;;;;;;19.23;11.70;;;6.30;99.00;;;;;;4914879;29;20042;-90
2022/03/26 04:38:36;;;;;;;19.52;12.18;;;6.30;99.10;;;;;;4982275;23;20124;-91
2022/03/26 04:41:02;;;;;;;21.48;12.90;;;6.30;99.20;;;;;;4901709;29;20040;-91
2022/03/26 04:43:33;;;;;;;19.48;11.95;;;6.30;99.30;;;;;;4917119;29;20032;-91
2022/03/26 04:46:02;;;;;;;19.75;11.32;;;6.20;99.40;;;;;;4918394;29;20086;-90
2022/03/26 04:48:27;;;;;;;19.95;11.43;;;6.20;99.40;;;;;;4915460;29;20063;-90
2022/03/26 04:50:53;;;;;;;18.40;12.55;;;6.10;99.50;;;;;;4916210;29;20040;-90
2022/03/26 04:53:19;;;;;;;22.38;12.80;;;6.20;99.60;;;;;;4915381;29;20029;-90
2022/03/26 04:55:44;;;;;;;18.02;12.02;;;6.20;99.70;;;;;;4915997;29;20056;-91
2022/03/26 04:58:12;;;;;;;18.65;11.52;;;6.20;99.80;;;;;;4916182;29;20044;-90
2022/03/26 05:00:37;;;;;;;18.73;12.10;;;6.20;99.80;;;;;;4915969;29;20032;-90
2022/03/26 05:03:04;;;;;;;20.55;11.45;;;6.10;99.90;;;;;;4915483;29;20039;-90
2022/03/26 05:05:33;;;;;;;19.05;11.23;;;6.10;99.90;;;;;;4899726;29;20052;-90
2022/03/26 05:07:59;;;;;;;17.55;11.05;;;6.10;99.90;;;;;;4915257;29;20036;-90
2022/03/26 05:10:31;;;;;;;18.52;11.30;;;6.10;99.90;;;;;;4915013;29;20034;-90
2022/03/26 05:12:58;;;;;;;20.15;11.32;;;6.00;99.90;;;;;;4899229;29;20048;-89
2022/03/26 05:15:31;;;;;;;16.52;11.13;;;6.00;99.90;;;;;;4875485;29;20037;-91
2022/03/26 05:17:58;;;;;;;18.38;11.27;;;6.00;99.90;;;;;;4920501;29;20040;-93
2022/03/26 05:20:25;;;;;;;19.55;11.50;;;5.90;99.90;;;;;;4907785;29;20040;-90
2022/03/26 05:22:52;;;;;;;19.15;11.18;;;5.90;99.90;;;;;;4915207;29;20043;-89
2022/03/26 05:25:22;;;;;;;17.90;11.15;;;5.90;99.90;;;;;;4913324;29;20036;-90
2022/03/26 05:27:52;;;;;;;18.80;10.48;;;5.90;99.90;;;;;;4914731;29;20517;-90
2022/03/26 05:30:39;;;;;;;17.63;11.27;;;5.80;99.90;;;;;;4895361;29;20041;-89
2022/03/26 05:33:11;;;;;;;18.85;11.18;;;5.90;99.90;;;;;;4895910;29;20081;-89
2022/03/26 05:35:36;;;;;;;19.73;11.30;;;5.80;99.90;;;;;;4892624;29;20522;-89
2022/03/26 05:38:07;;;;;;;18.70;11.73;;;5.80;99.90;;;;;;4903969;29;20051;-89
2022/03/26 05:40:40;;;;;;;17.73;11.15;;;5.70;99.90;;;;;;4906771;29;20060;-90
2022/03/26 05:43:10;;;;;;;15.98;10.98;;;5.70;99.90;;;;;;4906445;29;20029;-90
2022/03/26 05:45:41;;;;;;;17.90;11.43;;;5.60;99.90;;;;;;4907144;29;20017;-91
2022/03/26 05:48:08;;;;;;;20.73;11.55;;;5.60;99.90;;;;;;4906307;29;20039;-95
2022/03/26 05:50:36;;;;;;;17.60;11.60;;;5.60;99.90;;;;;;4907026;29;20021;-89
2022/03/26 05:53:08;;;;;;;17.83;11.30;;;5.60;99.90;;;;;;4907110;29;20028;-90
2022/03/26 05:55:34;;;;;;;18.60;11.52;;;5.70;99.90;;;;;;4904119;29;20020;-91
2022/03/26 05:58:23;;;;;;;17.85;10.73;;;5.70;99.90;;;;;;4906934;29;20024;-91
2022/03/26 06:00:58;;;;;;;18.63;10.65;;;5.70;99.90;;;;;;4905508;29;20074;-91
2022/03/26 06:03:26;;;;;;;18.33;10.68;;;5.70;99.90;;;;;;4914814;29;20047;-90
2022/03/26 06:06:18;;;;;;;17.90;12.32;;;5.80;99.90;;;;;;4903553;29;20021;-91
2022/03/26 06:08:50;;;;;;;17.90;11.00;;;5.90;99.90;;;;;;4908515;29;20068;-91
2022/03/26 06:11:42;;;;;;;16.20;10.63;;;5.80;99.90;;;;;;4943037;23;20763;-91
2022/03/26 06:14:12;;;;;;;18.48;11.27;;;5.90;99.90;;;;;;5052019;23;20545;-91
2022/03/26 06:16:40;;;;;;;20.55;11.52;;;5.90;99.90;;;;;;4933276;29;20048;-90
2022/03/26 06:19:11;;;;;;;19.60;11.50;;;5.90;99.90;;;;;;5077452;23;20139;-92
2022/03/26 06:21:37;;;;;;;18.02;11.23;;;5.90;99.90;;;;;;4897464;29;20048;-91
2022/03/26 06:24:05;;;;;;;17.80;11.55;;;5.90;99.90;;;;;;4893330;29;20041;-90
2022/03/26 06:26:36;;;;;;;15.70;10.68;;;5.90;99.90;;;;;;4896116;29;20037;-91
2022/03/26 06:29:18;;;;;;;17.67;11.38;;;6.00;99.90;;;;;;4911973;29;20069;-91
2022/03/26 06:31:46;;;;;;;16.75;10.63;;;6.00;99.90;;;;;;4896917;29;20076;-91
2022/03/26 06:34:15;;;;;;;18.40;10.63;;;6.10;99.90;;;;;;4898563;29;20024;-90
2022/03/26 06:36:48;;;;;;;19.15;11.07;;;6.10;99.90;;;;;;4916489;29;20051;-91
2022/03/26 06:39:15;;;;;;;18.05;10.98;;;6.20;99.90;;;;;;4897776;29;20033;-91
2022/03/26 06:41:43;;;;;;;19.50;12.23;;;6.20;99.90;;;;;;4892293;29;20056;-90
2022/03/26 06:44:11;;;;;;;18.80;11.95;;;6.30;99.90;;;;;;4896846;29;20033;-91
2022/03/26 06:46:37;;;;;;;18.25;11.32;;;6.40;99.90;;;;;;4893629;29;20036;-91
2022/03/26 06:49:07;;;;;;;23.42;13.27;;;6.40;99.90;;;;;;4890383;29;20120;-91
2022/03/26 06:51:33;;;;;;;20.08;11.75;;;6.50;99.90;;;;;;4888700;29;20041;-92
2022/03/26 06:53:59;;;;;;;18.80;11.55;;;6.70;99.90;;;;;;4884108;29;20189;-91
2022/03/26 06:56:25;;;;;;;20.02;12.50;;;6.70;99.90;;;;;;4884055;29;20096;-92
2022/03/26 06:58:51;;;;;;;19.23;12.00;;;6.90;99.90;;;;;;4888265;29;20092;-93
2022/03/26 07:01:17;;;;;;;20.58;12.32;;;6.90;99.90;;;;;;4891736;29;20056;-93
2022/03/26 07:03:42;;;;;;;23.73;13.18;;;7.00;99.90;;;;;;4888474;29;20056;-93
2022/03/26 07:06:08;;;;;;;20.58;12.25;;;7.10;99.90;;;;;;4884544;29;20033;-89
2022/03/26 07:08:34;;;;;;;22.08;13.77;;;7.20;99.90;;;;;;4883900;29;20029;-90
2022/03/26 07:11:00;;;;;;;26.80;15.65;;;7.30;99.90;;;;;;4882760;29;20500;-91
2022/03/26 07:13:26;;;;;;;23.67;14.82;;;7.40;99.90;;;;;;4885424;29;20028;-90
2022/03/26 07:15:51;;;;;;;21.85;13.98;;;7.50;99.90;;;;;;4886484;29;20036;-92
2022/03/26 07:18:17;;;;;;;21.90;13.27;;;7.60;99.90;;;;;;4885994;29;20093;-90
2022/03/26 07:20:43;;;;;;;21.98;14.55;;;7.70;99.90;;;;;;4886374;29;20096;-91
2022/03/26 07:23:08;;;;;;;20.35;13.25;;;7.90;99.90;;;;;;4886401;29;20484;-90
2022/03/26 07:25:34;;;;;;;22.95;14.02;;;7.90;99.90;;;;;;4886153;29;20142;-92
2022/03/26 07:28:00;;;;;;;22.55;14.70;;;8.10;99.90;;;;;;4884133;29;20236;-90
2022/03/26 07:30:26;;;;;;;24.30;14.15;;;8.20;99.90;;;;;;4884775;29;20115;-90
2022/03/26 07:32:52;;;;;;;24.63;15.88;;;8.30;99.90;;;;;;4885848;29;20041;-91
2022/03/26 07:35:18;;;;;;;25.73;16.10;;;8.50;99.90;;;;;;4888490;29;20051;-92
2022/03/26 07:37:44;;;;;;;24.55;15.73;;;8.60;99.90;;;;;;4887885;29;20036;-92
2022/03/26 07:40:11;;;;;;;25.38;15.80;;;8.60;99.90;;;;;;4890316;29;20021;-91
2022/03/26 07:42:37;;;;;;;24.65;15.80;;;8.70;99.90;;;;;;4891639;29;20032;-92
2022/03/26 07:45:04;;;;;;;26.17;17.15;;;8.80;99.90;;;;;;4892086;29;20092;-92
2022/03/26 07:47:30;;;;;;;27.38;17.63;;;8.80;99.90;;;;;;4886612;29;20029;-92
2022/03/26 07:49:56;;;;;;;29.52;17.45;;;8.90;99.90;;;;;;4889247;29;20075;-91
2022/03/26 07:52:22;;;;;;;30.70;18.88;;;8.90;99.90;;;;;;4886671;29;20048;-92
2022/03/26 07:54:47;;;;;;;28.20;16.75;;;9.10;99.90;;;;;;4885946;29;20033;-92
2022/03/26 07:57:13;;;;;;;30.55;18.80;;;9.20;99.90;;;;;;4886169;29;20136;-92
2022/03/26 07:59:39;;;;;;;29.77;17.92;;;9.30;99.90;;;;;;4886297;29;20080;-90
2022/03/26 08:02:05;;;;;;;25.55;16.13;;;9.30;99.90;;;;;;4886047;29;20033;-89
2022/03/26 08:04:31;;;;;;;28.25;17.67;;;9.50;99.90;;;;;;4886285;29;20533;-90
2022/03/26 08:06:57;;;;;;;26.90;16.00;;;9.60;99.90;;;;;;4885814;29;20041;-92
2022/03/26 08:09:23;;;;;;;27.73;16.08;;;9.70;99.90;;;;;;4885732;29;20119;-89
2022/03/26 08:11:48;;;;;;;30.35;17.42;;;9.80;99.90;;;;;;4885484;29;20072;-90
2022/03/26 08:14:14;;;;;;;30.20;17.25;;;10.00;99.90;;;;;;4886068;29;20043;-91
2022/03/26 08:16:40;;;;;;;31.45;18.05;;;10.10;99.90;;;;;;4885094;29;20384;-88
2022/03/26 08:19:06;;;;;;;30.92;17.85;;;10.20;99.90;;;;;;4902410;29;20048;-92
2022/03/26 08:21:35;;;;;;;29.35;16.70;;;10.30;99.90;;;;;;4887434;29;20043;-93
2022/03/26 08:24:04;;;;;;;29.10;16.58;;;10.40;99.90;;;;;;4883994;29;20089;-89
2022/03/26 08:26:30;;;;;;;32.10;17.95;;;10.50;99.90;;;;;;4886016;29;20037;-91
2022/03/26 08:28:58;;;;;;;32.25;17.85;;;10.70;99.90;;;;;;4885447;29;20039;-91
2022/03/26 08:31:26;;;;;;;29.23;17.63;;;10.70;99.80;;;;;;4885398;29;20051;-90
2022/03/26 08:33:53;;;;;;;31.20;18.45;;;10.90;99.70;;;;;;4885953;29;20033;-90
2022/03/26 08:36:18;;;;;;;28.60;17.98;;;11.00;99.40;;;;;;4885454;29;20075;-92
2022/03/26 08:38:46;;;;;;;29.33;16.75;;;11.20;99.30;;;;;;4885313;29;20032;-92
2022/03/26 08:41:17;;;;;;;28.67;17.50;;;11.30;99.20;;;;;;4885510;29;20114;-94
2022/03/26 08:43:43;;;;;;;27.35;16.58;;;11.40;99.10;;;;;;4886027;29;20040;-94
2022/03/26 08:46:09;;;;;;;30.92;17.20;;;11.50;99.10;;;;;;4891496;29;20036;-91
2022/03/26 08:48:35;;;;;;;27.50;16.55;;;11.60;98.90;;;;;;4897282;29;20041;-91
2022/03/26 08:51:02;;;;;;;26.55;16.27;;;11.80;98.90;;;;;;4891342;29;20044;-91
2022/03/26 08:53:29;;;;;;;24.33;15.98;;;11.90;98.70;;;;;;4891104;29;20476;-91
2022/03/26 08:55:58;;;;;;;32.08;17.77;;;12.10;98.60;;;;;;4894162;29;20047;-92
2022/03/26 08:59:09;;;;;;;;;;;;;;;;;;;;;
2022/03/26 09:01:35;;;;;;;26.35;15.88;;;12.40;98.30;;;;;;4875932;29;20145;-94
2022/03/26 09:04:01;;;;;;;27.38;16.27;;;12.50;98.20;;;;;;4884999;29;20056;-89
2022/03/26 09:06:27;;;;;;;22.23;15.40;;;12.50;98.10;;;;;;4901742;29;20092;-90
2022/03/26 09:08:52;;;;;;;24.42;15.18;;;12.60;97.90;;;;;;4885338;29;20053;-91
2022/03/26 09:11:18;;;;;;;23.15;14.70;;;12.70;97.80;;;;;;4884555;29;20067;-92
2022/03/26 09:13:45;;;;;;;21.33;13.43;;;12.80;97.80;;;;;;4886730;29;20072;-91
2022/03/26 09:16:10;;;;;;;18.58;12.68;;;12.90;97.70;;;;;;4884568;29;20574;-90
2022/03/26 09:18:36;;;;;;;18.88;12.57;;;13.10;97.70;;;;;;4884936;29;20072;-91
2022/03/26 09:21:02;;;;;;;18.05;11.95;;;13.20;97.80;;;;;;4885048;29;20047;-90
2022/03/26 09:23:27;;;;;;;19.20;11.88;;;13.30;97.50;;;;;;4885034;29;20029;-93
2022/03/26 09:25:53;;;;;;;19.23;11.63;;;13.50;97.40;;;;;;4885308;29;20033;-92
2022/03/26 09:28:19;;;;;;;18.35;11.48;;;13.60;97.30;;;;;;4888408;29;20438;-92
2022/03/26 09:30:45;;;;;;;17.98;11.63;;;13.70;97.10;;;;;;4885299;29;20040;-91
2022/03/26 09:33:11;;;;;;;17.27;10.68;;;13.80;97.30;;;;;;4884907;29;20043;-91
2022/03/26 09:35:36;;;;;;;16.00;10.38;;;13.90;97.10;;;;;;4884981;29;20470;-91
2022/03/26 09:38:02;;;;;;;16.60;10.13;;;14.00;97.10;;;;;;4889585;29;20032;-90
2022/03/26 09:40:28;;;;;;;15.18;9.75;;;14.10;96.90;;;;;;4890384;29;20024;-89
2022/03/26 09:42:54;;;;;;;15.45;8.80;;;14.30;96.80;;;;;;4888936;29;20520;-91
2022/03/26 09:45:20;;;;;;;13.57;8.68;;;14.40;96.70;;;;;;4891074;29;20144;-89
2022/03/26 09:47:48;;;;;;;12.57;8.60;;;14.50;96.70;;;;;;4894758;29;20028;-89
2022/03/26 09:50:14;;;;;;;13.70;8.38;;;15.00;97.60;;;;;;4893769;29;20132;-90
2022/03/26 09:52:40;;;;;;;11.27;7.45;;;16.30;97.10;;;;;;4893337;29;20160;-87
2022/03/26 09:55:11;;;;;;;13.65;6.88;;;18.10;96.00;;;;;;4891094;29;20090;-92
2022/03/26 09:57:39;;;;;;;10.60;6.85;;;19.40;94.60;;;;;;4889817;29;20044;-96
2022/03/26 10:00:06;;;;;;;10.43;6.70;;;20.70;93.50;;;;;;4888995;29;20085;-93
2022/03/26 10:02:32;;;;;;;13.30;8.23;;;21.60;92.30;;;;;;4882631;29;20036;-92
2022/03/26 10:04:58;;;;;;;11.30;7.55;;;22.30;90.60;;;;;;4884451;29;20135;-93
2022/03/26 10:07:32;;;;;;;10.40;6.40;;;22.80;90.00;;;;;;4888488;29;20460;-92
2022/03/26 10:09:57;;;;;;;10.73;6.38;;;23.50;88.70;;;;;;4886374;29;20104;-94
2022/03/26 10:12:27;;;;;;;8.23;6.60;;;24.00;87.30;;;;;;4883260;29;20049;-95
2022/03/26 10:14:58;;;;;;;9.35;6.15;;;24.50;84.00;;;;;;4906839;23;20123;-95
2022/03/26 10:17:29;;;;;;;10.60;6.75;;;24.50;81.70;;;;;;4907045;29;20086;-96
2022/03/26 10:19:59;;;;;;;13.40;7.15;;;24.70;81.50;;;;;;4903122;29;20123;-92
2022/03/26 10:22:43;;;;;;;9.00;6.18;;;25.00;80.60;;;;;;4899710;29;20046;-90
2022/03/26 10:25:21;;;;;;;7.78;5.97;;;25.40;79.10;;;;;;4901329;29;20032;-91
2022/03/26 10:27:52;;;;;;;8.65;6.05;;;25.90;78.20;;;;;;4903691;29;20431;-90
2022/03/26 10:33:22;;;;;;;7.80;6.18;;;26.40;75.90;;;;;;4914276;29;20046;-92
2022/03/26 10:36:03;;;;;;;9.70;6.95;;;26.70;74.80;;;;;;4901551;29;20036;-92
2022/03/26 10:38:33;;;;;;;10.30;6.28;;;26.90;73.00;;;;;;4900656;29;20036;-92
2022/03/26 10:41:00;;;;;;;8.63;6.35;;;26.80;71.30;;;;;;4902387;29;20024;-92
2022/03/26 10:43:27;;;;;;;10.82;6.60;;;26.70;70.10;;;;;;4901768;29;20036;-90
2022/03/26 10:45:55;;;;;;;7.50;6.15;;;26.70;69.00;;;;;;4902344;29;20044;-93
2022/03/26 10:48:25;;;;;;;10.40;5.57;;;26.70;68.70;;;;;;4905645;29;20111;-91
2022/03/26 10:50:59;;;;;;;9.15;6.07;;;26.90;68.90;;;;;;4912036;29;20048;-91
2022/03/26 10:53:39;;;;;;;6.97;5.10;;;27.30;68.50;;;;;;4928962;29;20141;-92
2022/03/26 10:56:10;;;;;;;6.72;5.57;;;27.60;68.30;;;;;;4913163;29;20096;-89
2022/03/26 10:58:37;;;;;;;6.97;5.40;;;27.90;67.20;;;;;;4933329;29;20048;-93
2022/03/26 11:01:03;;;;;;;6.47;5.13;;;28.10;66.30;;;;;;4914742;29;20044;-91
2022/03/26 11:03:29;;;;;;;8.70;6.22;;;28.10;66.10;;;;;;4905024;29;20086;-90
2022/03/26 11:05:56;;;;;;;8.55;5.47;;;28.00;64.50;;;;;;4904505;29;20498;-89
2022/03/26 11:08:32;;;;;;;7.32;4.97;;;27.90;64.60;;;;;;4907793;29;20036;-94
2022/03/26 11:11:02;;;;;;;6.88;5.13;;;28.00;63.70;;;;;;4911176;29;20071;-93
2022/03/26 11:13:28;;;;;;;8.30;4.93;;;28.00;63.80;;;;;;4910262;29;20024;-94
2022/03/26 11:16:01;;;;;;;7.70;4.75;;;28.20;63.60;;;;;;4906262;29;20062;-93
2022/03/26 11:18:47;;;;;;;;;;;28.50;62.10;;;;;;4905991;29;20044;-93
2022/03/26 11:21:24;;;;;;;7.78;4.70;;;28.30;62.40;;;;;;4910113;29;19932;-94
2022/03/26 11:24:12;;;;;;;7.18;4.50;;;28.50;62.10;;;;;;4932781;29;20047;-92
2022/03/26 11:27:05;;;;;;;6.30;4.57;;;28.60;60.40;;;;;;4918507;29;20032;-91
2022/03/26 11:29:51;;;;;;;6.93;4.18;;;28.60;60.50;;;;;;4920446;29;20047;-92
2022/03/26 11:32:37;;;;;;;6.05;4.47;;;28.60;60.10;;;;;;4916679;29;20491;-93
2022/03/26 11:35:14;;;;;;;8.95;5.03;;;28.90;59.50;;;;;;4916003;29;20052;-90
2022/03/26 11:37:54;;;;;;;7.80;5.80;;;29.00;58.80;;;;;;4897063;23;20060;-89
2022/03/26 11:40:39;;;;;;;9.63;6.53;;;28.80;57.10;;;;;;4877525;29;20045;-91
2022/03/26 11:43:16;;;;;;;11.98;7.38;;;28.50;58.00;;;;;;4873886;29;20055;-94
2022/03/26 11:51:31;;;;;;;10.68;7.32;;;28.70;56.70;;;;;;4883272;29;20088;-90
2022/03/26 11:54:09;;;;;;;10.15;7.45;;;28.70;56.60;;;;;;4885216;29;20123;-94
2022/03/26 11:56:36;;;;;;;11.00;7.82;;;28.70;56.50;;;;;;4879316;29;20041;-92
2022/03/26 11:59:17;;;;;;;10.27;7.32;;;28.60;55.50;;;;;;4887389;29;20488;-94
2022/03/26 12:01:50;;;;;;;9.63;6.15;;;28.40;55.60;;;;;;4872968;29;20065;-93
2022/03/26 12:04:19;;;;;;;9.55;5.65;;;28.20;55.70;;;;;;4872067;29;20033;-92
2022/03/26 12:06:59;;;;;;;11.40;5.70;;;28.30;55.70;;;;;;4886019;29;20041;-85
2022/03/26 12:09:36;;;;;;;11.10;5.32;;;28.50;55.80;;;;;;4882589;29;20044;-88
2022/03/26 12:12:10;;;;;;;8.77;5.40;;;28.90;56.00;;;;;;4871826;29;20045;-88
2022/03/26 12:14:56;;;;;;;8.18;5.35;;;29.10;55.60;;;;;;4890091;29;20037;-89
2022/03/26 12:17:41;;;;;;;6.85;5.40;;;29.20;55.10;;;;;;4867718;29;20091;-90
2022/03/26 12:20:22;;;;;;;7.82;5.72;;;29.50;55.00;;;;;;4872519;29;20033;-87
2022/03/26 12:23:14;;;;;;;8.25;5.90;;;29.40;54.60;;;;;;4873822;29;20033;-88
2022/03/26 12:25:49;;;;;;;9.50;5.07;;;29.30;54.60;;;;;;4872508;29;20167;-88
2022/03/26 12:28:17;;;;;;;7.22;5.22;;;29.30;54.50;;;;;;4876021;29;20278;-88
2022/03/26 12:30:52;;;;;;;7.35;5.30;;;29.70;54.40;;;;;;4876872;29;20041;-90
2022/03/26 12:33:18;;;;;;;10.02;6.40;;;30.10;54.50;;;;;;4871631;29;20071;-88
2022/03/26 12:35:46;;;;;;;9.13;5.97;;;30.20;53.80;;;;;;4876361;29;20034;-85
2022/03/26 12:38:12;;;;;;;7.68;5.53;;;30.20;54.10;;;;;;4871062;29;20156;-87
2022/03/26 12:40:39;;;;;;;7.03;4.65;;;30.20;53.40;;;;;;4872765;29;20033;-89
2022/03/26 12:43:10;;;;;;;7.45;4.13;;;30.00;53.20;;;;;;4871783;29;20483;-89
2022/03/26 12:45:35;;;;;;;9.07;5.00;;;30.00;53.00;;;;;;4872730;29;20456;-87
2022/03/26 12:48:01;;;;;;;8.40;5.30;;;30.00;53.10;;;;;;4867730;29;20068;-87
2022/03/26 12:50:27;;;;;;;7.82;5.00;;;30.20;52.20;;;;;;4865368;29;20037;-87
2022/03/26 12:52:53;;;;;;;8.95;5.55;;;30.20;52.70;;;;;;4864779;29;20512;-89
2022/03/26 12:55:19;;;;;;;10.70;5.78;;;30.40;52.00;;;;;;4863083;29;20040;-90
2022/03/26 13:00:32;;;;;;;7.65;5.45;;;30.30;52.20;;;;;;4863829;29;20052;-87
2022/03/26 13:06:05;;;;;;;7.85;5.35;;;30.30;52.00;;;;;;4859127;29;20048;-87